sensor_id;sensor_type;location;lat;lon;timestamp;P1;durP1;ratioP1;P2;durP2;ratioP2
76807;SDS011;65758;45.458;11.062;2023-12-22T00:00:22;25.80;;;17.40;;
76807;SDS011;65758;45.458;11.062;2023-12-22T00:02:49;24.00;;;17.50;;
76807;SDS011;65758;45.458;11.062;2023-12-22T00:05:15;26.50;;;17.00;;
76807;SDS011;65758;45.458;11.062;2023-12-22T00:07:42;25.30;;;18.40;;
76807;SDS011;65758;45.458;11.062;2023-12-22T00:12:36;28.00;;;17.10;;
76807;SDS011;65758;45.458;11.062;2023-12-22T00:15:05;25.50;;;16.70;;
76807;SDS011;65758;45.458;11.062;2023-12-22T00:17:32;25.30;;;16.40;;
76807;SDS011;65758;45.458;11.062;2023-12-22T00:22:29;25.10;;;15.00;;
76807;SDS011;65758;45.458;11.062;2023-12-22T00:24:57;23.40;;;14.90;;
76807;SDS011;65758;45.458;11.062;2023-12-22T00:27:24;18.30;;;13.30;;
76807;SDS011;65758;45.458;11.062;2023-12-22T00:29:50;19.60;;;13.20;;
76807;SDS011;65758;45.458;11.062;2023-12-22T00:32:17;19.40;;;13.00;;
76807;SDS011;65758;45.458;11.062;2023-12-22T00:34:44;19.00;;;13.70;;
76807;SDS011;65758;45.458;11.062;2023-12-22T00:37:10;23.50;;;15.40;;
76807;SDS011;65758;45.458;11.062;2023-12-22T00:39:39;25.90;;;15.50;;
76807;SDS011;65758;45.458;11.062;2023-12-22T00:42:05;20.70;;;14.00;;
76807;SDS011;65758;45.458;11.062;2023-12-22T00:46:59;18.40;;;13.40;;
76807;SDS011;65758;45.458;11.062;2023-12-22T00:51:52;14.10;;;10.80;;
76807;SDS011;65758;45.458;11.062;2023-12-22T00:54:19;18.40;;;12.30;;
76807;SDS011;65758;45.458;11.062;2023-12-22T00:56:46;17.30;;;12.90;;
76807;SDS011;65758;45.458;11.062;2023-12-22T00:59:13;18.60;;;12.80;;
76807;SDS011;65758;45.458;11.062;2023-12-22T01:04:06;10.70;;;7.20;;
76807;SDS011;65758;45.458;11.062;2023-12-22T01:06:37;16.40;;;10.80;;
76807;SDS011;65758;45.458;11.062;2023-12-22T01:09:06;19.20;;;12.60;;
76807;SDS011;65758;45.458;11.062;2023-12-22T01:15:59;18.50;;;11.60;;
76807;SDS011;65758;45.458;11.062;2023-12-22T01:20:55;19.70;;;12.20;;
76807;SDS011;65758;45.458;11.062;2023-12-22T01:23:22;13.60;;;8.90;;
76807;SDS011;65758;45.458;11.062;2023-12-22T01:25:51;17.20;;;12.80;;
76807;SDS011;65758;45.458;11.062;2023-12-22T01:28:19;21.90;;;13.60;;
76807;SDS011;65758;45.458;11.062;2023-12-22T01:30:45;22.00;;;12.90;;
76807;SDS011;65758;45.458;11.062;2023-12-22T01:35:39;22.40;;;13.20;;
76807;SDS011;65758;45.458;11.062;2023-12-22T01:38:06;22.70;;;15.10;;
76807;SDS011;65758;45.458;11.062;2023-12-22T01:43:00;18.20;;;12.00;;
76807;SDS011;65758;45.458;11.062;2023-12-22T01:45:28;16.30;;;12.30;;
76807;SDS011;65758;45.458;11.062;2023-12-22T01:47:54;18.10;;;11.90;;
76807;SDS011;65758;45.458;11.062;2023-12-22T01:50:21;18.70;;;12.20;;
76807;SDS011;65758;45.458;11.062;2023-12-22T01:52:48;20.00;;;14.00;;
76807;SDS011;65758;45.458;11.062;2023-12-22T01:55:15;18.90;;;13.40;;
76807;SDS011;65758;45.458;11.062;2023-12-22T01:57:44;20.40;;;13.40;;
76807;SDS011;65758;45.458;11.062;2023-12-22T02:00:11;21.40;;;13.40;;
76807;SDS011;65758;45.458;11.062;2023-12-22T02:02:39;20.70;;;13.60;;
76807;SDS011;65758;45.458;11.062;2023-12-22T02:05:09;21.20;;;13.70;;
76807;SDS011;65758;45.458;11.062;2023-12-22T02:07:39;20.80;;;12.70;;
76807;SDS011;65758;45.458;11.062;2023-12-22T02:10:08;15.80;;;12.30;;
76807;SDS011;65758;45.458;11.062;2023-12-22T02:12:38;19.20;;;12.90;;
76807;SDS011;65758;45.458;11.062;2023-12-22T02:15:05;19.70;;;13.70;;
76807;SDS011;65758;45.458;11.062;2023-12-22T02:17:34;15.70;;;11.80;;
76807;SDS011;65758;45.458;11.062;2023-12-22T02:20:04;19.60;;;14.00;;
76807;SDS011;65758;45.458;11.062;2023-12-22T02:22:33;20.50;;;13.70;;
76807;SDS011;65758;45.458;11.062;2023-12-22T02:30:14;19.70;;;13.70;;
76807;SDS011;65758;45.458;11.062;2023-12-22T02:32:54;17.60;;;12.60;;
76807;SDS011;65758;45.458;11.062;2023-12-22T02:37:53;20.10;;;12.80;;
76807;SDS011;65758;45.458;11.062;2023-12-22T02:40:23;20.20;;;14.80;;
76807;SDS011;65758;45.458;11.062;2023-12-22T02:42:52;23.80;;;16.50;;
76807;SDS011;65758;45.458;11.062;2023-12-22T02:45:19;22.90;;;15.20;;
76807;SDS011;65758;45.458;11.062;2023-12-22T02:47:47;22.40;;;14.70;;
76807;SDS011;65758;45.458;11.062;2023-12-22T02:50:15;21.70;;;14.70;;
76807;SDS011;65758;45.458;11.062;2023-12-22T02:52:42;19.60;;;13.60;;
76807;SDS011;65758;45.458;11.062;2023-12-22T02:55:10;21.70;;;14.50;;
76807;SDS011;65758;45.458;11.062;2023-12-22T02:57:37;19.30;;;14.40;;
76807;SDS011;65758;45.458;11.062;2023-12-22T03:00:04;23.90;;;15.90;;
76807;SDS011;65758;45.458;11.062;2023-12-22T03:02:31;21.80;;;14.30;;
76807;SDS011;65758;45.458;11.062;2023-12-22T03:04:58;24.00;;;15.80;;
76807;SDS011;65758;45.458;11.062;2023-12-22T03:09:51;23.40;;;15.30;;
76807;SDS011;65758;45.458;11.062;2023-12-22T03:12:18;16.20;;;12.40;;
76807;SDS011;65758;45.458;11.062;2023-12-22T03:14:45;23.40;;;15.00;;
76807;SDS011;65758;45.458;11.062;2023-12-22T03:17:12;21.10;;;13.60;;
76807;SDS011;65758;45.458;11.062;2023-12-22T03:19:38;21.70;;;13.60;;
76807;SDS011;65758;45.458;11.062;2023-12-22T03:22:05;18.80;;;12.60;;
76807;SDS011;65758;45.458;11.062;2023-12-22T03:26:59;19.00;;;13.50;;
76807;SDS011;65758;45.458;11.062;2023-12-22T03:29:26;23.30;;;14.60;;
76807;SDS011;65758;45.458;11.062;2023-12-22T03:34:20;22.40;;;14.80;;
76807;SDS011;65758;45.458;11.062;2023-12-22T03:39:16;26.30;;;16.30;;
76807;SDS011;65758;45.458;11.062;2023-12-22T03:41:43;24.40;;;14.90;;
76807;SDS011;65758;45.458;11.062;2023-12-22T03:46:37;25.80;;;15.30;;
76807;SDS011;65758;45.458;11.062;2023-12-22T03:51:31;23.60;;;15.10;;
76807;SDS011;65758;45.458;11.062;2023-12-22T03:53:57;22.10;;;14.50;;
76807;SDS011;65758;45.458;11.062;2023-12-22T03:56:24;24.00;;;15.80;;
76807;SDS011;65758;45.458;11.062;2023-12-22T03:58:51;28.60;;;17.00;;
76807;SDS011;65758;45.458;11.062;2023-12-22T04:01:18;20.60;;;14.40;;
76807;SDS011;65758;45.458;11.062;2023-12-22T04:03:45;18.60;;;12.40;;
76807;SDS011;65758;45.458;11.062;2023-12-22T04:06:12;16.40;;;9.80;;
76807;SDS011;65758;45.458;11.062;2023-12-22T04:08:39;17.00;;;11.60;;
76807;SDS011;65758;45.458;11.062;2023-12-22T04:13:32;27.00;;;16.90;;
76807;SDS011;65758;45.458;11.062;2023-12-22T04:15:59;25.70;;;17.60;;
76807;SDS011;65758;45.458;11.062;2023-12-22T04:18:26;24.70;;;16.70;;
76807;SDS011;65758;45.458;11.062;2023-12-22T04:23:21;24.50;;;16.80;;
76807;SDS011;65758;45.458;11.062;2023-12-22T04:25:48;29.20;;;19.00;;
76807;SDS011;65758;45.458;11.062;2023-12-22T04:28:16;31.00;;;20.10;;
76807;SDS011;65758;45.458;11.062;2023-12-22T04:30:42;28.50;;;17.90;;
76807;SDS011;65758;45.458;11.062;2023-12-22T04:33:09;30.40;;;21.50;;
76807;SDS011;65758;45.458;11.062;2023-12-22T04:35:36;33.60;;;22.50;;
76807;SDS011;65758;45.458;11.062;2023-12-22T04:38:03;33.60;;;22.40;;
76807;SDS011;65758;45.458;11.062;2023-12-22T04:40:30;28.50;;;20.80;;
76807;SDS011;65758;45.458;11.062;2023-12-22T04:45:24;26.70;;;19.60;;
76807;SDS011;65758;45.458;11.062;2023-12-22T04:47:50;29.30;;;21.50;;
76807;SDS011;65758;45.458;11.062;2023-12-22T04:50:18;25.60;;;19.40;;
76807;SDS011;65758;45.458;11.062;2023-12-22T04:52:44;27.00;;;20.00;;
76807;SDS011;65758;45.458;11.062;2023-12-22T04:55:11;29.80;;;20.50;;
76807;SDS011;65758;45.458;11.062;2023-12-22T04:57:38;30.40;;;23.40;;
76807;SDS011;65758;45.458;11.062;2023-12-22T05:02:32;29.30;;;21.30;;
76807;SDS011;65758;45.458;11.062;2023-12-22T05:04:59;31.30;;;22.10;;
76807;SDS011;65758;45.458;11.062;2023-12-22T05:07:28;31.70;;;23.20;;
76807;SDS011;65758;45.458;11.062;2023-12-22T05:09:54;28.60;;;20.70;;
76807;SDS011;65758;45.458;11.062;2023-12-22T05:12:21;33.10;;;22.30;;
76807;SDS011;65758;45.458;11.062;2023-12-22T05:14:48;29.70;;;22.20;;
76807;SDS011;65758;45.458;11.062;2023-12-22T05:19:42;24.80;;;17.60;;
76807;SDS011;65758;45.458;11.062;2023-12-22T05:24:36;22.80;;;17.90;;
76807;SDS011;65758;45.458;11.062;2023-12-22T05:27:04;22.40;;;16.30;;
76807;SDS011;65758;45.458;11.062;2023-12-22T05:29:31;24.80;;;18.30;;
76807;SDS011;65758;45.458;11.062;2023-12-22T05:31:57;28.10;;;21.40;;
76807;SDS011;65758;45.458;11.062;2023-12-22T05:34:24;29.80;;;20.80;;
76807;SDS011;65758;45.458;11.062;2023-12-22T05:36:51;31.80;;;19.70;;
76807;SDS011;65758;45.458;11.062;2023-12-22T05:41:44;30.40;;;21.30;;
76807;SDS011;65758;45.458;11.062;2023-12-22T05:46:38;31.70;;;20.20;;
76807;SDS011;65758;45.458;11.062;2023-12-22T05:49:05;29.00;;;21.20;;
76807;SDS011;65758;45.458;11.062;2023-12-22T05:51:36;29.80;;;19.70;;
76807;SDS011;65758;45.458;11.062;2023-12-22T05:54:05;24.50;;;16.90;;
76807;SDS011;65758;45.458;11.062;2023-12-22T05:56:32;27.70;;;19.20;;
76807;SDS011;65758;45.458;11.062;2023-12-22T05:58:59;23.40;;;18.10;;
76807;SDS011;65758;45.458;11.062;2023-12-22T06:01:26;24.00;;;17.70;;
76807;SDS011;65758;45.458;11.062;2023-12-22T06:03:53;22.90;;;16.10;;
76807;SDS011;65758;45.458;11.062;2023-12-22T06:06:21;24.40;;;15.70;;
76807;SDS011;65758;45.458;11.062;2023-12-22T06:13:08;17.10;;;12.40;;
76807;SDS011;65758;45.458;11.062;2023-12-22T06:20:03;20.40;;;13.30;;
76807;SDS011;65758;45.458;11.062;2023-12-22T06:26:51;14.00;;;10.80;;
76807;SDS011;65758;45.458;11.062;2023-12-22T06:29:18;12.50;;;10.10;;
76807;SDS011;65758;45.458;11.062;2023-12-22T06:34:17;13.20;;;10.00;;
76807;SDS011;65758;45.458;11.062;2023-12-22T06:36:47;18.00;;;12.30;;
76807;SDS011;65758;45.458;11.062;2023-12-22T06:39:13;15.00;;;10.90;;
76807;SDS011;65758;45.458;11.062;2023-12-22T06:41:40;15.90;;;11.90;;
76807;SDS011;65758;45.458;11.062;2023-12-22T06:44:08;14.30;;;10.80;;
76807;SDS011;65758;45.458;11.062;2023-12-22T06:46:37;18.40;;;12.90;;
76807;SDS011;65758;45.458;11.062;2023-12-22T06:51:33;18.80;;;12.40;;
76807;SDS011;65758;45.458;11.062;2023-12-22T06:54:03;19.20;;;12.30;;
76807;SDS011;65758;45.458;11.062;2023-12-22T06:56:32;18.90;;;13.00;;
76807;SDS011;65758;45.458;11.062;2023-12-22T06:59:00;15.60;;;11.90;;
76807;SDS011;65758;45.458;11.062;2023-12-22T07:01:29;17.50;;;13.80;;
76807;SDS011;65758;45.458;11.062;2023-12-22T07:03:58;15.80;;;10.90;;
76807;SDS011;65758;45.458;11.062;2023-12-22T07:06:29;14.10;;;8.90;;
76807;SDS011;65758;45.458;11.062;2023-12-22T07:11:30;11.60;;;8.50;;
76807;SDS011;65758;45.458;11.062;2023-12-22T07:14:03;12.90;;;10.70;;
76807;SDS011;65758;45.458;11.062;2023-12-22T07:16:30;12.10;;;9.30;;
76807;SDS011;65758;45.458;11.062;2023-12-22T07:18:58;14.40;;;9.80;;
76807;SDS011;65758;45.458;11.062;2023-12-22T07:21:25;12.60;;;8.80;;
76807;SDS011;65758;45.458;11.062;2023-12-22T07:23:52;11.90;;;8.10;;
76807;SDS011;65758;45.458;11.062;2023-12-22T07:28:48;9.30;;;5.60;;
76807;SDS011;65758;45.458;11.062;2023-12-22T07:31:18;10.80;;;7.30;;
76807;SDS011;65758;45.458;11.062;2023-12-22T07:33:45;9.30;;;6.90;;
76807;SDS011;65758;45.458;11.062;2023-12-22T07:36:14;8.00;;;6.00;;
76807;SDS011;65758;45.458;11.062;2023-12-22T07:38:40;7.30;;;5.90;;
76807;SDS011;65758;45.458;11.062;2023-12-22T07:43:34;8.90;;;6.50;;
76807;SDS011;65758;45.458;11.062;2023-12-22T07:46:01;15.60;;;7.40;;
76807;SDS011;65758;45.458;11.062;2023-12-22T07:48:29;12.00;;;8.60;;
76807;SDS011;65758;45.458;11.062;2023-12-22T07:50:56;11.90;;;7.90;;
76807;SDS011;65758;45.458;11.062;2023-12-22T07:55:50;14.40;;;9.80;;
76807;SDS011;65758;45.458;11.062;2023-12-22T07:58:17;12.20;;;8.80;;
76807;SDS011;65758;45.458;11.062;2023-12-22T08:00:46;11.80;;;8.50;;
76807;SDS011;65758;45.458;11.062;2023-12-22T08:03:13;12.40;;;8.10;;
76807;SDS011;65758;45.458;11.062;2023-12-22T08:05:40;12.90;;;8.90;;
76807;SDS011;65758;45.458;11.062;2023-12-22T08:10:33;17.50;;;11.90;;
76807;SDS011;65758;45.458;11.062;2023-12-22T08:13:00;13.10;;;9.40;;
76807;SDS011;65758;45.458;11.062;2023-12-22T08:15:27;11.20;;;8.10;;
76807;SDS011;65758;45.458;11.062;2023-12-22T08:18:02;15.70;;;8.60;;
76807;SDS011;65758;45.458;11.062;2023-12-22T08:20:30;12.10;;;8.30;;
76807;SDS011;65758;45.458;11.062;2023-12-22T08:23:03;11.70;;;8.20;;
76807;SDS011;65758;45.458;11.062;2023-12-22T08:25:36;16.30;;;10.60;;
76807;SDS011;65758;45.458;11.062;2023-12-22T08:28:03;15.40;;;10.20;;
76807;SDS011;65758;45.458;11.062;2023-12-22T08:30:30;14.10;;;9.60;;
76807;SDS011;65758;45.458;11.062;2023-12-22T08:35:24;9.70;;;6.40;;
76807;SDS011;65758;45.458;11.062;2023-12-22T08:40:18;14.60;;;10.10;;
76807;SDS011;65758;45.458;11.062;2023-12-22T08:42:52;14.50;;;9.60;;
76807;SDS011;65758;45.458;11.062;2023-12-22T08:45:27;14.80;;;10.10;;
76807;SDS011;65758;45.458;11.062;2023-12-22T08:47:57;12.70;;;8.60;;
76807;SDS011;65758;45.458;11.062;2023-12-22T08:50:25;14.60;;;8.60;;
76807;SDS011;65758;45.458;11.062;2023-12-22T08:52:52;11.10;;;7.60;;
76807;SDS011;65758;45.458;11.062;2023-12-22T08:55:19;8.40;;;6.10;;
76807;SDS011;65758;45.458;11.062;2023-12-22T08:57:46;7.80;;;5.40;;
76807;SDS011;65758;45.458;11.062;2023-12-22T09:00:24;5.70;;;4.20;;
76807;SDS011;65758;45.458;11.062;2023-12-22T09:05:19;8.30;;;4.10;;
76807;SDS011;65758;45.458;11.062;2023-12-22T09:07:47;6.80;;;4.60;;
76807;SDS011;65758;45.458;11.062;2023-12-22T09:10:14;8.30;;;5.20;;
76807;SDS011;65758;45.458;11.062;2023-12-22T09:12:41;6.80;;;5.60;;
76807;SDS011;65758;45.458;11.062;2023-12-22T09:15:09;6.20;;;5.30;;
76807;SDS011;65758;45.458;11.062;2023-12-22T09:17:36;8.40;;;5.30;;
76807;SDS011;65758;45.458;11.062;2023-12-22T09:20:03;11.20;;;5.40;;
76807;SDS011;65758;45.458;11.062;2023-12-22T09:22:30;8.50;;;5.10;;
76807;SDS011;65758;45.458;11.062;2023-12-22T09:24:57;7.90;;;5.00;;
76807;SDS011;65758;45.458;11.062;2023-12-22T09:29:55;10.00;;;6.20;;
76807;SDS011;65758;45.458;11.062;2023-12-22T09:32:22;9.90;;;5.90;;
76807;SDS011;65758;45.458;11.062;2023-12-22T09:34:48;9.40;;;6.30;;
76807;SDS011;65758;45.458;11.062;2023-12-22T09:37:15;7.40;;;5.40;;
76807;SDS011;65758;45.458;11.062;2023-12-22T09:42:09;5.80;;;4.40;;
76807;SDS011;65758;45.458;11.062;2023-12-22T09:44:36;7.30;;;5.50;;
76807;SDS011;65758;45.458;11.062;2023-12-22T09:47:05;7.60;;;5.30;;
76807;SDS011;65758;45.458;11.062;2023-12-22T09:49:34;10.10;;;6.20;;
76807;SDS011;65758;45.458;11.062;2023-12-22T09:52:02;10.20;;;6.20;;
76807;SDS011;65758;45.458;11.062;2023-12-22T09:54:31;13.70;;;7.10;;
76807;SDS011;65758;45.458;11.062;2023-12-22T09:56:59;7.80;;;6.00;;
76807;SDS011;65758;45.458;11.062;2023-12-22T09:59:45;8.30;;;5.30;;
76807;SDS011;65758;45.458;11.062;2023-12-22T10:02:15;8.60;;;5.10;;
76807;SDS011;65758;45.458;11.062;2023-12-22T10:04:42;8.20;;;4.70;;
76807;SDS011;65758;45.458;11.062;2023-12-22T10:07:09;8.60;;;6.00;;
76807;SDS011;65758;45.458;11.062;2023-12-22T10:09:41;9.80;;;6.30;;
76807;SDS011;65758;45.458;11.062;2023-12-22T10:12:09;12.60;;;6.30;;
76807;SDS011;65758;45.458;11.062;2023-12-22T10:14:38;8.20;;;4.60;;
76807;SDS011;65758;45.458;11.062;2023-12-22T10:17:06;11.20;;;5.30;;
76807;SDS011;65758;45.458;11.062;2023-12-22T10:19:33;5.00;;;3.60;;
76807;SDS011;65758;45.458;11.062;2023-12-22T10:22:00;4.40;;;3.30;;
76807;SDS011;65758;45.458;11.062;2023-12-22T10:24:40;2.60;;;1.90;;
76807;SDS011;65758;45.458;11.062;2023-12-22T10:27:09;2.00;;;1.50;;
76807;SDS011;65758;45.458;11.062;2023-12-22T10:29:37;3.00;;;1.70;;
76807;SDS011;65758;45.458;11.062;2023-12-22T10:32:06;2.20;;;1.40;;
76807;SDS011;65758;45.458;11.062;2023-12-22T10:34:34;2.40;;;1.80;;
76807;SDS011;65758;45.458;11.062;2023-12-22T10:37:02;4.70;;;1.90;;
76807;SDS011;65758;45.458;11.062;2023-12-22T10:39:29;2.10;;;1.30;;
76807;SDS011;65758;45.458;11.062;2023-12-22T10:41:58;2.00;;;1.60;;
76807;SDS011;65758;45.458;11.062;2023-12-22T10:44:26;1.50;;;1.30;;
76807;SDS011;65758;45.458;11.062;2023-12-22T10:46:53;2.70;;;2.00;;
76807;SDS011;65758;45.458;11.062;2023-12-22T10:53:35;1.70;;;1.60;;
76807;SDS011;65758;45.458;11.062;2023-12-22T10:56:02;5.50;;;1.70;;
76807;SDS011;65758;45.458;11.062;2023-12-22T10:58:29;2.30;;;1.60;;
76807;SDS011;65758;45.458;11.062;2023-12-22T11:00:56;5.30;;;1.50;;
76807;SDS011;65758;45.458;11.062;2023-12-22T11:03:24;2.50;;;1.80;;
76807;SDS011;65758;45.458;11.062;2023-12-22T11:05:53;4.60;;;2.10;;
76807;SDS011;65758;45.458;11.062;2023-12-22T11:08:21;3.00;;;1.80;;
76807;SDS011;65758;45.458;11.062;2023-12-22T11:10:53;2.30;;;1.70;;
76807;SDS011;65758;45.458;11.062;2023-12-22T11:13:25;2.20;;;1.50;;
76807;SDS011;65758;45.458;11.062;2023-12-22T11:15:54;2.30;;;1.40;;
76807;SDS011;65758;45.458;11.062;2023-12-22T11:18:21;4.40;;;1.40;;
76807;SDS011;65758;45.458;11.062;2023-12-22T11:20:50;5.20;;;1.50;;
76807;SDS011;65758;45.458;11.062;2023-12-22T11:23:18;1.90;;;1.50;;
76807;SDS011;65758;45.458;11.062;2023-12-22T11:25:48;2.20;;;1.50;;
76807;SDS011;65758;45.458;11.062;2023-12-22T11:28:20;4.30;;;1.60;;
76807;SDS011;65758;45.458;11.062;2023-12-22T11:30:49;4.30;;;1.70;;
76807;SDS011;65758;45.458;11.062;2023-12-22T11:33:22;2.80;;;2.30;;
76807;SDS011;65758;45.458;11.062;2023-12-22T11:35:52;2.50;;;1.80;;
76807;SDS011;65758;45.458;11.062;2023-12-22T11:38:22;2.80;;;1.80;;
76807;SDS011;65758;45.458;11.062;2023-12-22T11:40:49;2.50;;;2.10;;
76807;SDS011;65758;45.458;11.062;2023-12-22T11:43:19;3.50;;;1.90;;
76807;SDS011;65758;45.458;11.062;2023-12-22T11:45:48;4.60;;;2.30;;
76807;SDS011;65758;45.458;11.062;2023-12-22T11:48:16;3.10;;;1.90;;
76807;SDS011;65758;45.458;11.062;2023-12-22T11:50:43;2.90;;;2.00;;
76807;SDS011;65758;45.458;11.062;2023-12-22T11:53:17;2.80;;;1.90;;
76807;SDS011;65758;45.458;11.062;2023-12-22T12:01:02;4.50;;;2.10;;
76807;SDS011;65758;45.458;11.062;2023-12-22T12:03:32;4.20;;;2.10;;
76807;SDS011;65758;45.458;11.062;2023-12-22T12:06:13;3.30;;;1.90;;
76807;SDS011;65758;45.458;11.062;2023-12-22T12:08:43;2.50;;;1.50;;
76807;SDS011;65758;45.458;11.062;2023-12-22T12:11:10;3.60;;;1.70;;
76807;SDS011;65758;45.458;11.062;2023-12-22T12:13:39;3.70;;;2.80;;
76807;SDS011;65758;45.458;11.062;2023-12-22T12:16:09;1.60;;;1.50;;
76807;SDS011;65758;45.458;11.062;2023-12-22T12:18:38;3.40;;;3.20;;
76807;SDS011;65758;45.458;11.062;2023-12-22T12:21:06;3.60;;;2.00;;
76807;SDS011;65758;45.458;11.062;2023-12-22T12:23:36;2.80;;;1.90;;
76807;SDS011;65758;45.458;11.062;2023-12-22T12:26:07;2.30;;;1.90;;
76807;SDS011;65758;45.458;11.062;2023-12-22T12:28:35;2.50;;;1.60;;
76807;SDS011;65758;45.458;11.062;2023-12-22T12:31:06;3.80;;;1.60;;
76807;SDS011;65758;45.458;11.062;2023-12-22T12:33:35;3.30;;;1.80;;
76807;SDS011;65758;45.458;11.062;2023-12-22T12:36:02;1.80;;;1.60;;
76807;SDS011;65758;45.458;11.062;2023-12-22T12:41:36;3.40;;;1.70;;
76807;SDS011;65758;45.458;11.062;2023-12-22T12:44:07;3.10;;;1.50;;
76807;SDS011;65758;45.458;11.062;2023-12-22T12:46:35;3.30;;;1.80;;
76807;SDS011;65758;45.458;11.062;2023-12-22T12:51:42;2.80;;;1.90;;
76807;SDS011;65758;45.458;11.062;2023-12-22T12:54:10;1.70;;;1.30;;
76807;SDS011;65758;45.458;11.062;2023-12-22T12:56:39;3.20;;;1.20;;
76807;SDS011;65758;45.458;11.062;2023-12-22T12:59:11;5.20;;;3.00;;
76807;SDS011;65758;45.458;11.062;2023-12-22T13:01:39;3.50;;;1.30;;
76807;SDS011;65758;45.458;11.062;2023-12-22T13:04:07;2.70;;;1.30;;
76807;SDS011;65758;45.458;11.062;2023-12-22T13:06:34;4.00;;;1.20;;
76807;SDS011;65758;45.458;11.062;2023-12-22T13:09:01;1.70;;;1.30;;
76807;SDS011;65758;45.458;11.062;2023-12-22T13:11:30;1.60;;;1.30;;
76807;SDS011;65758;45.458;11.062;2023-12-22T13:13:58;2.60;;;1.40;;
76807;SDS011;65758;45.458;11.062;2023-12-22T13:16:26;2.00;;;1.40;;
76807;SDS011;65758;45.458;11.062;2023-12-22T13:18:56;2.10;;;1.60;;
76807;SDS011;65758;45.458;11.062;2023-12-22T13:21:28;1.10;;;1.00;;
76807;SDS011;65758;45.458;11.062;2023-12-22T13:24:11;3.50;;;1.10;;
76807;SDS011;65758;45.458;11.062;2023-12-22T13:26:40;1.30;;;1.10;;
76807;SDS011;65758;45.458;11.062;2023-12-22T13:29:07;1.80;;;1.00;;
76807;SDS011;65758;45.458;11.062;2023-12-22T13:31:39;1.20;;;1.10;;
76807;SDS011;65758;45.458;11.062;2023-12-22T13:34:10;3.40;;;1.30;;
76807;SDS011;65758;45.458;11.062;2023-12-22T13:36:38;3.30;;;1.40;;
76807;SDS011;65758;45.458;11.062;2023-12-22T13:39:06;2.60;;;1.20;;
76807;SDS011;65758;45.458;11.062;2023-12-22T13:45:40;5.40;;;1.50;;
76807;SDS011;65758;45.458;11.062;2023-12-22T13:48:08;2.20;;;1.60;;
76807;SDS011;65758;45.458;11.062;2023-12-22T13:50:35;2.80;;;2.00;;
76807;SDS011;65758;45.458;11.062;2023-12-22T13:53:09;3.60;;;2.90;;
76807;SDS011;65758;45.458;11.062;2023-12-22T13:55:36;4.80;;;2.40;;
76807;SDS011;65758;45.458;11.062;2023-12-22T13:58:05;6.10;;;3.00;;
76807;SDS011;65758;45.458;11.062;2023-12-22T14:00:32;5.30;;;3.30;;
76807;SDS011;65758;45.458;11.062;2023-12-22T14:03:00;4.10;;;2.20;;
76807;SDS011;65758;45.458;11.062;2023-12-22T14:05:27;2.90;;;1.80;;
76807;SDS011;65758;45.458;11.062;2023-12-22T14:08:00;1.70;;;1.30;;
76807;SDS011;65758;45.458;11.062;2023-12-22T14:10:28;2.40;;;1.40;;
76807;SDS011;65758;45.458;11.062;2023-12-22T14:12:55;1.90;;;1.10;;
76807;SDS011;65758;45.458;11.062;2023-12-22T14:15:22;2.50;;;1.20;;
76807;SDS011;65758;45.458;11.062;2023-12-22T14:17:56;1.80;;;1.10;;
76807;SDS011;65758;45.458;11.062;2023-12-22T14:20:23;1.60;;;1.40;;
76807;SDS011;65758;45.458;11.062;2023-12-22T14:22:51;2.70;;;0.70;;
76807;SDS011;65758;45.458;11.062;2023-12-22T14:25:19;1.60;;;0.70;;
76807;SDS011;65758;45.458;11.062;2023-12-22T14:27:46;1.00;;;1.00;;
76807;SDS011;65758;45.458;11.062;2023-12-22T14:30:13;1.30;;;1.10;;
76807;SDS011;65758;45.458;11.062;2023-12-22T14:32:40;0.80;;;0.80;;
76807;SDS011;65758;45.458;11.062;2023-12-22T14:35:07;1.30;;;0.80;;
76807;SDS011;65758;45.458;11.062;2023-12-22T14:37:34;2.30;;;1.10;;
76807;SDS011;65758;45.458;11.062;2023-12-22T14:40:02;1.10;;;1.00;;
76807;SDS011;65758;45.458;11.062;2023-12-22T14:42:29;1.90;;;1.30;;
76807;SDS011;65758;45.458;11.062;2023-12-22T14:44:56;1.20;;;1.10;;
76807;SDS011;65758;45.458;11.062;2023-12-22T14:47:23;1.20;;;1.00;;
76807;SDS011;65758;45.458;11.062;2023-12-22T14:49:50;3.40;;;1.50;;
76807;SDS011;65758;45.458;11.062;2023-12-22T14:52:17;1.30;;;1.20;;
76807;SDS011;65758;45.458;11.062;2023-12-22T14:54:44;2.50;;;1.40;;
76807;SDS011;65758;45.458;11.062;2023-12-22T14:57:11;2.90;;;1.50;;
76807;SDS011;65758;45.458;11.062;2023-12-22T14:59:38;1.90;;;1.40;;
76807;SDS011;65758;45.458;11.062;2023-12-22T15:02:04;3.10;;;1.80;;
76807;SDS011;65758;45.458;11.062;2023-12-22T15:04:32;7.10;;;5.40;;
76807;SDS011;65758;45.458;11.062;2023-12-22T15:07:00;4.50;;;2.40;;
76807;SDS011;65758;45.458;11.062;2023-12-22T15:09:28;9.80;;;2.80;;
76807;SDS011;65758;45.458;11.062;2023-12-22T15:11:55;8.90;;;6.00;;
76807;SDS011;65758;45.458;11.062;2023-12-22T15:14:22;6.60;;;2.90;;
76807;SDS011;65758;45.458;11.062;2023-12-22T15:16:50;4.00;;;1.90;;
76807;SDS011;65758;45.458;11.062;2023-12-22T15:19:20;4.20;;;2.50;;
76807;SDS011;65758;45.458;11.062;2023-12-22T15:21:47;6.60;;;2.50;;
76807;SDS011;65758;45.458;11.062;2023-12-22T15:24:14;7.80;;;3.40;;
76807;SDS011;65758;45.458;11.062;2023-12-22T15:26:41;9.60;;;3.30;;
76807;SDS011;65758;45.458;11.062;2023-12-22T15:29:08;8.90;;;3.10;;
76807;SDS011;65758;45.458;11.062;2023-12-22T15:31:35;8.50;;;4.70;;
76807;SDS011;65758;45.458;11.062;2023-12-22T15:34:04;10.40;;;6.50;;
76807;SDS011;65758;45.458;11.062;2023-12-22T15:36:33;7.20;;;4.30;;
76807;SDS011;65758;45.458;11.062;2023-12-22T15:43:14;8.60;;;4.60;;
76807;SDS011;65758;45.458;11.062;2023-12-22T15:45:41;10.20;;;5.90;;
76807;SDS011;65758;45.458;11.062;2023-12-22T15:48:08;7.10;;;3.90;;
76807;SDS011;65758;45.458;11.062;2023-12-22T15:50:35;4.80;;;3.20;;
76807;SDS011;65758;45.458;11.062;2023-12-22T15:53:01;7.90;;;2.50;;
76807;SDS011;65758;45.458;11.062;2023-12-22T15:55:28;5.70;;;3.30;;
76807;SDS011;65758;45.458;11.062;2023-12-22T15:57:58;4.80;;;2.40;;
76807;SDS011;65758;45.458;11.062;2023-12-22T16:00:24;6.00;;;1.70;;
76807;SDS011;65758;45.458;11.062;2023-12-22T16:02:53;3.80;;;1.70;;
76807;SDS011;65758;45.458;11.062;2023-12-22T16:05:20;3.00;;;1.90;;
76807;SDS011;65758;45.458;11.062;2023-12-22T16:07:47;3.20;;;1.70;;
76807;SDS011;65758;45.458;11.062;2023-12-22T16:10:14;3.40;;;2.10;;
76807;SDS011;65758;45.458;11.062;2023-12-22T16:12:41;2.40;;;1.80;;
76807;SDS011;65758;45.458;11.062;2023-12-22T16:15:08;6.10;;;3.40;;
76807;SDS011;65758;45.458;11.062;2023-12-22T16:17:35;3.60;;;2.60;;
76807;SDS011;65758;45.458;11.062;2023-12-22T16:20:02;5.50;;;1.80;;
76807;SDS011;65758;45.458;11.062;2023-12-22T16:22:29;5.20;;;2.10;;
76807;SDS011;65758;45.458;11.062;2023-12-22T16:24:58;5.50;;;2.70;;
76807;SDS011;65758;45.458;11.062;2023-12-22T16:27:27;27.50;;;12.70;;
76807;SDS011;65758;45.458;11.062;2023-12-22T16:29:54;17.50;;;8.20;;
76807;SDS011;65758;45.458;11.062;2023-12-22T16:32:21;8.90;;;4.30;;
76807;SDS011;65758;45.458;11.062;2023-12-22T16:34:48;7.90;;;3.00;;
76807;SDS011;65758;45.458;11.062;2023-12-22T16:37:15;7.20;;;2.50;;
76807;SDS011;65758;45.458;11.062;2023-12-22T16:39:47;7.10;;;3.20;;